• Join FlightAware (Why Join?)
  • Login
  • US Flag 
04:23AM EDT


 

Airport Tracker/Info


-or-


 

Live Flight TrackerFlight Track Log ✈ MAS79 ✈ 24-Apr-2013 ✈ VHHH / HKG - WMKK / KUL

Flight Track Log - Related Links

Times and Time Zones

All times are in EDT time to prevent confusion due to time zone crossing. See the MAS79 flight status page for this flight to view local times or setup timezone preferences in your user account.

Time Position Orientation Groundspeed Altitude Reporting Facility
EDT Latitude Longitude Course Direction KTS MPH feet Rate Location/Type
09:02PM 22.3080 113.9340 68° East 173 199 700  Level FlightAware
09:02PM 22.3160 113.9600 72° East 192 221 1,600 1,500 Climbing FlightAware
09:03PM 22.3260 113.9900 70° East 234 269 2,200 1,740 Climbing FlightAware
09:03PM 22.3350 114.0180 71° East 242 278 3,200 1,800 Climbing FlightAware
09:04PM 22.3250 114.0610 104° East 268 308 4,200 900 Climbing FlightAware
09:04PM 22.3020 114.0820 140° Southeast 268 308 4,200 2,400 Level FlightAware
09:05PM 22.2620 114.0730 192° South 255 293 6,200 300 Climbing FlightAware
09:08PM 22.0023 113.8889 213° Southwest  Level Estimated
09:09PM 21.9066 113.8213 213° Southwest  Level Estimated
09:10PM 21.8110 113.7538 213° Southwest  Level Estimated
09:11PM 21.7153 113.6864 213° Southwest  Level Estimated
09:12PM 21.6195 113.6191 213° Southwest  Level Estimated
09:13PM 21.5238 113.5519 213° Southwest  Level Estimated
09:14PM 21.4280 113.4847 213° Southwest  Level Estimated
09:15PM 21.3322 113.4177 213° Southwest  Level Estimated
09:16PM 21.2363 113.3507 213° Southwest  Level Estimated
09:17PM 21.1405 113.2839 213° Southwest  Level Estimated
09:18PM 21.0446 113.2171 213° Southwest  Level Estimated
09:19PM 20.9487 113.1504 213° Southwest  Level Estimated
09:20PM 20.8527 113.0837 213° Southwest  Level Estimated
09:21PM 20.7568 113.0172 213° Southwest  Level Estimated
09:22PM 20.6608 112.9508 213° Southwest  Level Estimated
09:23PM 20.5647 112.8844 213° Southwest  Level Estimated
09:24PM 20.4687 112.8181 213° Southwest  Level Estimated
09:25PM 20.3726 112.7519 213° Southwest  Level Estimated
09:26PM 20.2853 112.6918 213° Southwest  Level Estimated
09:27PM 20.1979 112.6318 213° Southwest  Level Estimated
09:28PM 20.1105 112.5718 213° Southwest  Level Estimated
09:29PM 20.0231 112.5119 213° Southwest  Level Estimated
09:30PM 19.9356 112.4520 213° Southwest  Level Estimated
09:31PM 19.8482 112.3923 213° Southwest  Level Estimated
09:32PM 19.7607 112.3326 213° Southwest  Level Estimated
09:33PM 19.6732 112.2729 213° Southwest  Level Estimated
09:34PM 19.5857 112.2133 213° Southwest  Level Estimated
09:35PM 19.4981 112.1538 213° Southwest  Level Estimated
09:36PM 19.4106 112.0944 213° Southwest  Level Estimated
09:37PM 19.3230 112.0350 213° Southwest  Level Estimated
09:38PM 19.2354 111.9757 213° Southwest  Level Estimated
09:39PM 19.1478 111.9164 213° Southwest  Level Estimated
09:40PM 19.0601 111.8572 213° Southwest  Level Estimated
09:41PM 18.9725 111.7981 213° Southwest  Level Estimated
09:42PM 18.8848 111.7390 213° Southwest  Level Estimated
09:43PM 18.7971 111.6800 213° Southwest  Level Estimated
09:44PM 18.7094 111.6211 212° Southwest  Level Estimated
09:45PM 18.6217 111.5622 212° Southwest  Level Estimated
09:46PM 18.5339 111.5033 212° Southwest  Level Estimated
09:47PM 18.4462 111.4446 212° Southwest  Level Estimated
09:48PM 18.3584 111.3859 212° Southwest  Level Estimated
09:49PM 18.2706 111.3272 212° Southwest  Level Estimated
09:50PM 18.1828 111.2686 212° Southwest  Level Estimated
09:51PM 18.0949 111.2101 212° Southwest  Level Estimated
09:52PM 18.0071 111.1516 212° Southwest  Level Estimated
09:53PM 17.9192 111.0932 212° Southwest  Level Estimated
09:54PM 17.8313 111.0349 212° Southwest  Level Estimated
09:55PM 17.7434 110.9766 212° Southwest  Level Estimated
09:56PM 17.6555 110.9184 212° Southwest  Level Estimated
09:57PM 17.5676 110.8602 212° Southwest  Level Estimated
09:58PM 17.4796 110.8020 212° Southwest  Level Estimated
09:59PM 17.3916 110.7440 212° Southwest  Level Estimated
10:00PM 17.3036 110.6860 212° Southwest  Level Estimated
10:01PM 17.2156 110.6280 212° Southwest  Level Estimated
10:02PM 17.1276 110.5701 212° Southwest  Level Estimated
10:03PM 17.0396 110.5123 212° Southwest  Level Estimated
10:04PM 16.9515 110.4545 212° Southwest  Level Estimated
10:05PM 16.8634 110.3967 212° Southwest  Level Estimated
10:06PM 16.7753 110.3391 212° Southwest  Level Estimated
10:07PM 16.6872 110.2814 212° Southwest  Level Estimated
10:08PM 16.5991 110.2238 212° Southwest  Level Estimated
10:09PM 16.5110 110.1663 212° Southwest  Level Estimated
10:10PM 16.4228 110.1088 212° Southwest  Level Estimated
10:11PM 16.3347 110.0514 212° Southwest  Level Estimated
10:12PM 16.2465 109.9941 212° Southwest  Level Estimated
10:13PM 16.1583 109.9367 212° Southwest  Level Estimated
10:14PM 16.0701 109.8795 212° Southwest  Level Estimated
10:15PM 15.9818 109.8223 212° Southwest  Level Estimated
10:16PM 15.8936 109.7651 212° Southwest  Level Estimated
10:17PM 15.8053 109.7080 212° Southwest  Level Estimated
10:18PM 15.7171 109.6509 212° Southwest  Level Estimated
10:19PM 15.6288 109.5939 212° Southwest  Level Estimated
10:20PM 15.5405 109.5369 212° Southwest  Level Estimated
10:21PM 15.4522 109.4800 212° Southwest  Level Estimated
10:22PM 15.3638 109.4231 212° Southwest  Level Estimated
10:23PM 15.2755 109.3663 212° Southwest  Level Estimated
10:24PM 15.1871 109.3095 212° Southwest  Level Estimated
10:25PM 15.0987 109.2528 212° Southwest  Level Estimated
10:26PM 15.0104 109.1961 212° Southwest  Level Estimated
10:27PM 14.9220 109.1395 212° Southwest  Level Estimated
10:28PM 14.8335 109.0829 212° Southwest  Level Estimated
10:29PM 14.7451 109.0264 212° Southwest  Level Estimated
10:30PM 14.6566 108.9699 212° Southwest  Level Estimated
10:31PM 14.5682 108.9135 212° Southwest  Level Estimated
10:32PM 14.4797 108.8570 212° Southwest  Level Estimated
10:33PM 14.3912 108.8007 212° Southwest  Level Estimated
10:34PM 14.3027 108.7444 212° Southwest  Level Estimated
10:35PM 14.2142 108.6881 212° Southwest  Level Estimated
10:35PM 12.3580 108.9720 212° Southwest 470 541 36,000  Level FlightAware
10:36PM 14.1257 108.6319 212° Southwest  Level Estimated
10:36PM 12.2830 108.9250 211° Southwest 470 541 36,000  Level FlightAware
10:37PM 12.2020 108.8730 212° Southwest 471 542 36,000  Level FlightAware
10:37PM 12.1280 108.8260 212° Southwest 471 542 36,000  Level FlightAware
10:38PM 12.0440 108.7740 211° Southwest 472 543 36,000  Level FlightAware
10:39PM 11.9690 108.7260 212° Southwest 476 548 36,000  Level FlightAware
10:39PM 11.8950 108.6790 212° Southwest 478 550 36,000  Level FlightAware
10:40PM 11.8070 108.6240 211° Southwest 482 555 36,000  Level FlightAware
10:41PM 11.7320 108.5770 212° Southwest 481 554 36,000  Level FlightAware
10:42PM 11.6490 108.5250 212° Southwest 480 552 36,000  Level FlightAware
10:42PM 11.5730 108.4760 212° Southwest 477 549 36,000  Level FlightAware
10:43PM 11.4960 108.4280 211° Southwest 478 550 36,000  Level FlightAware
10:44PM 11.4110 108.3750 211° Southwest 477 549 36,000  Level FlightAware
10:45PM 11.3230 108.3200 212° Southwest 477 549 36,000  Level FlightAware
10:45PM 11.2320 108.2620 212° Southwest 477 549 36,000  Level FlightAware
10:46PM 11.1480 108.2090 212° Southwest 475 547 36,000  Level FlightAware
10:47PM 11.0750 108.1640 211° Southwest 473 544 36,000  Level FlightAware
10:47PM 10.9900 108.1110 211° Southwest 472 543 36,000  Level FlightAware
10:48PM 10.9140 108.0630 212° Southwest 473 544 36,000  Level FlightAware
10:49PM 10.8410 108.0150 213° Southwest 473 544 36,000  Level FlightAware
10:50PM 10.7570 107.9580 214° Southwest 472 543 36,000  Level FlightAware
10:50PM 10.6840 107.9100 213° Southwest 473 544 36,000  Level FlightAware
10:51PM 10.6030 107.8560 213° Southwest 473 544 36,000  Level FlightAware
10:52PM 10.5300 107.8080 213° Southwest 473 544 36,000  Level FlightAware
10:52PM 10.4570 107.7600 213° Southwest 473 544 36,000  Level FlightAware
10:53PM 10.3710 107.7030 213° Southwest 471 542 36,000  Level FlightAware
10:54PM 10.2970 107.6540 213° Southwest 471 542 36,000  Level FlightAware
10:54PM 10.2260 107.6070 213° Southwest 470 541 36,000  Level FlightAware
10:55PM 10.1440 107.5530 213° Southwest 470 541 36,000  Level FlightAware
10:56PM 10.0710 107.5050 213° Southwest 469 540 36,000  Level FlightAware
10:57PM 9.9880 107.4500 213° Southwest 470 541 36,000  Level FlightAware
10:57PM 9.9140 107.4010 213° Southwest 470 541 36,000  Level FlightAware
10:58PM 9.8330 107.3480 213° Southwest 470 541 36,000  Level FlightAware
10:59PM 9.7610 107.3010 213° Southwest 471 542 36,000  Level FlightAware
10:59PM 9.6760 107.2440 213° Southwest 472 543 36,000  Level FlightAware
11:00PM 9.6030 107.1970 212° Southwest 473 544 36,000  Level FlightAware
11:01PM 9.5290 107.1480 213° Southwest 474 545 36,000  Level FlightAware
11:01PM 9.4470 107.0940 213° Southwest 474 545 36,000  Level FlightAware
11:02PM 9.3740 107.0460 213° Southwest 474 545 36,000  Level FlightAware
11:03PM 9.3010 106.9980 213° Southwest 471 542 36,000  Level FlightAware
11:04PM 9.2180 106.9440 213° Southwest 462 532 36,000  Level FlightAware
11:04PM 9.1460 106.8970 213° Southwest 462 532 36,000  Level FlightAware
11:05PM 9.0660 106.8440 213° Southwest 464 534 36,000  Level FlightAware
11:06PM 8.9950 106.7980 213° Southwest 464 534 36,000  Level FlightAware
11:06PM 8.9210 106.7490 213° Southwest 465 535 36,000  Level FlightAware
11:07PM 8.8390 106.6960 213° Southwest 465 535 36,000  Level FlightAware
11:08PM 8.7660 106.6480 213° Southwest 464 534 36,000  Level FlightAware
11:08PM 8.6920 106.6000 213° Southwest 464 534 36,000  Level FlightAware
11:09PM 8.6130 106.5520 211° Southwest 466 536 36,000  Level FlightAware
11:10PM 8.5390 106.5060 212° Southwest 466 536 36,000  Level FlightAware
11:11PM 8.4590 106.4560 212° Southwest 465 535 36,000  Level FlightAware
11:11PM 8.3930 106.4160 211° Southwest 465 535 36,000  Level FlightAware
11:12PM 8.2800 106.3460 212° Southwest 474 545 36,000  Level FlightAware
11:13PM 8.1940 106.2920 212° Southwest 476 548 36,000  Level FlightAware
11:13PM 8.1290 106.2520 211° Southwest 477 549 36,000  Level FlightAware
11:14PM 8.0480 106.2020 211° Southwest 477 549 36,000  Level FlightAware
11:15PM 7.9620 106.1480 212° Southwest 478 550 36,000  Level FlightAware
11:16PM 7.8840 106.1000 211° Southwest 477 549 36,000  Level FlightAware
11:16PM 7.8100 106.0540 212° Southwest 476 548 36,000  Level FlightAware
11:17PM 7.7330 106.0070 211° Southwest 475 547 36,000  Level FlightAware
11:18PM 7.6410 105.9500 212° Southwest 474 545 36,000  Level FlightAware
11:19PM 7.5440 105.8910 211° Southwest 474 545 36,000  Level FlightAware
11:19PM 7.4800 105.8520 211° Southwest 474 545 36,000  Level FlightAware
11:20PM 7.4170 105.8130 212° Southwest 474 545 36,000  Level FlightAware
11:21PM 7.3530 105.7750 210° Southwest 474 545 36,000  Level FlightAware
11:21PM 7.2890 105.7360 211° Southwest 474 545 36,000  Level FlightAware
11:22PM 7.2090 105.6880 211° Southwest 474 545 36,000  Level FlightAware
11:23PM 7.1450 105.6490 211° Southwest 474 545 36,000  Level FlightAware
11:24PM 7.0810 105.6100 211° Southwest 474 545 36,000  Level FlightAware
11:24PM 7.0170 105.5720 211° Southwest 474 545 36,000  Level FlightAware
11:25PM 6.9530 105.5330 211° Southwest 474 545 36,000  Level FlightAware
11:26PM 6.8730 105.4850 211° Southwest 474 545 36,000  Level FlightAware
11:26PM 6.8090 105.4460 211° Southwest 474 545 36,000  Level FlightAware
11:27PM 6.7450 105.4070 211° Southwest 474 545 36,000  Level FlightAware
11:28PM 6.6820 105.3680 212° Southwest 474 545 36,000  Level FlightAware
11:30PM 6.5451 105.2396 223° Southwest  Level Estimated
11:31PM 6.4690 105.1683 223° Southwest  Level Estimated
11:32PM 6.3929 105.0970 223° Southwest  Level Estimated
11:33PM 6.3168 105.0258 223° Southwest  Level Estimated
11:34PM 6.2406 104.9546 223° Southwest  Level Estimated
11:34PM 5.8530 104.8370 223° Southwest 476 548 36,000  Level FlightAware
11:35PM 5.7920 104.7930 216° Southwest 476 548 36,000  Level FlightAware
11:37PM 5.5470 104.6140 216° Southwest 473 544 36,000  Level FlightAware
11:37PM 5.4830 104.5680 216° Southwest 473 544 36,000  Level FlightAware
11:38PM 5.4030 104.5090 216° Southwest 473 544 36,000  Level FlightAware
11:39PM 5.3420 104.4650 216° Southwest 473 544 36,000  Level FlightAware
11:40PM 5.2280 104.3830 216° Southwest 471 542 36,000  Level FlightAware
11:40PM 5.1500 104.3250 217° Southwest 471 542 36,000  Level FlightAware
11:41PM 5.0870 104.2790 216° Southwest 471 542 36,000  Level FlightAware
11:42PM 5.0170 104.2130 223° Southwest 473 544 36,000  Level FlightAware
11:42PM 4.9430 104.1480 221° Southwest 471 542 36,000  Level FlightAware
11:43PM 4.8750 104.0890 221° Southwest 472 543 36,000  Level FlightAware
11:44PM 4.8030 104.0230 222° Southwest 473 544 36,000  Level FlightAware
11:44PM 4.7550 103.9620 232° Southwest 476 548 36,000  Level FlightAware
11:45PM 4.7010 103.8890 233° Southwest 477 549 36,000  Level FlightAware
11:46PM 4.6390 103.8030 234° Southwest 477 549 36,000  Level FlightAware
11:47PM 4.5850 103.7290 234° Southwest 476 548 36,000  Level FlightAware
11:47PM 4.5280 103.6510 234° Southwest 476 548 36,000  Level FlightAware
11:48PM 4.4710 103.5730 234° Southwest 474 545 36,000  Level FlightAware
11:49PM 4.4220 103.5070 233° Southwest 460 529 36,000  Level FlightAware
11:49PM 4.3680 103.4330 234° Southwest 460 529 36,000  Level FlightAware
11:50PM 4.3100 103.3540 234° Southwest 458 527 36,000  Level FlightAware
11:51PM 4.2620 103.2880 234° Southwest 432 497 36,000  Level FlightAware
11:52PM 4.2090 103.2160 234° Southwest 429 494 36,000  Level FlightAware
11:52PM 4.1720 103.1670 233° Southwest 428 493 36,000  Level FlightAware
11:53PM 4.1210 103.0980 233° Southwest 427 491 36,000  Level FlightAware
11:54PM 4.0520 103.0050 233° Southwest 426 490 36,000 -600 Level FlightAware
11:55PM 4.0080 102.9440 234° Southwest 423 487 35,100 -1,680 Descending FlightAware
11:55PM 3.9510 102.8670 233° Southwest 413 475 33,700 -1,620 Descending FlightAware
11:56PM 3.9060 102.8060 234° Southwest 403 464 32,700 -1,500 Descending FlightAware
11:57PM 3.8740 102.7620 234° Southwest 395 455 32,000 -1,380 Descending FlightAware
11:57PM 3.8280 102.6990 234° Southwest 383 441 31,000 -1,380 Descending FlightAware
11:58PM 3.7770 102.6300 233° Southwest 372 428 29,900 -1,440 Descending FlightAware
11:59PM 3.7340 102.5730 233° Southwest 363 418 28,900 -1,320 Descending FlightAware
11:59PM 3.7000 102.5270 233° Southwest 352 405 28,300 -1,140 Descending FlightAware
12:00AM 3.6560 102.4660 234° Southwest 339 390 27,300 -1,200 Descending FlightAware
12:01AM 3.6130 102.4090 233° Southwest 331 381 26,400 -1,380 Descending FlightAware
12:02AM 3.5760 102.3570 235° Southwest 327 376 25,400 -1,440 Descending FlightAware
12:02AM 3.5440 102.3150 233° Southwest 325 374 24,600 -1,440 Descending FlightAware
12:03AM 3.4990 102.2530 234° Southwest 321 369 23,400 -1,440 Descending FlightAware
12:04AM 3.4640 102.2070 233° Southwest 318 366 22,500 -1,320 Descending FlightAware
12:04AM 3.4340 102.1660 234° Southwest 312 359 21,800 -1,200 Descending FlightAware
12:05AM 3.4010 102.1200 234° Southwest 308 354 21,000 -1,800 Descending FlightAware
12:06AM 3.3580 102.0670 231° Southwest 332 382 19,100 -2,520 Descending FlightAware
12:06AM 3.3390 102.0560 210° Southwest 334 384 18,500 -2,640 Descending FlightAware
12:06AM 3.3120 102.0520 188° South 335 386 17,800 -2,100 Descending FlightAware
12:07AM 3.2610 102.0450 188° South 334 384 16,100 -1,560 Descending FlightAware
12:08AM 3.1560 102.0370 184° South 324 373 15,400 -900 Descending FlightAware
12:08AM 3.1090 102.0350 182° South 324 373 14,900 -1,200 Descending FlightAware
12:09AM 3.0400 102.0310 183° South 319 367 13,700 -1,080 Descending FlightAware
12:10AM 2.9720 102.0280 183° South 291 335 13,200 -960 Descending FlightAware
12:11AM 2.9210 102.0240 184° South 282 325 12,400 -1,380 Descending FlightAware
12:11AM 2.8610 102.0190 185° South 283 326 11,300 -1,440 Descending FlightAware
12:12AM 2.8100 102.0160 183° South 286 329 10,400 -1,320 Descending FlightAware
12:13AM 2.7690 102.0130 184° South 284 327 9,800 -1,140 Descending FlightAware
12:13AM 2.7360 102.0100 185° South 276 318 9,400 -1,140 Descending FlightAware
12:14AM 2.7000 102.0080 183° South 270 311 8,800 -1,320 Descending FlightAware
12:14AM 2.6710 102.0060 184° South 270 311 8,300 -1,200 Descending FlightAware
12:14AM 2.6350 102.0030 185° South 266 306 7,800 -1,020 Descending FlightAware
12:15AM 2.5990 101.9990 186° South 263 303 7,300 -600 Descending FlightAware
12:15AM 2.5680 101.9880 200° South 262 302 7,200 -780 Descending FlightAware
12:16AM 2.5510 101.9400 250° West 229 264 6,400 -840 Descending FlightAware
12:16AM 2.5380 101.9200 237° Southwest 229 264 6,400 -1,380 Level FlightAware
12:17AM 2.7260 102.0100 26° Northeast 204 235 5,400 -1,380 Descending FlightAware
12:17AM 2.7290 101.9890 278° West 204 235 5,400 -1,200 Level FlightAware
12:18AM 2.5430 101.8470 217° Southwest 207 238 4,300 -2,040 Descending FlightAware
12:18AM 2.5470 101.8310 284° West 212 244 3,900 -1,380 Descending FlightAware
12:18AM 2.5650 101.8170 322° Northwest 201 231 3,400 -1,200 Descending FlightAware
12:19AM 2.5750 101.8110 329° Northwest 203 234 3,200 -1,080 Descending FlightAware
12:19AM 2.6000 101.7940 326° Northwest 204 235 2,600 -1,020 Descending FlightAware
12:20AM 2.6250 101.7770 326° Northwest 189 217 2,100 -1,020 Descending FlightAware
12:20AM 2.6410 101.7670 328° Northwest 181 208 1,700 -960 Descending FlightAware
12:20AM 2.6600 101.7540 326° Northwest 173 199 1,300 -480 Descending FlightAware
12:21AM 2.6750 101.7440 326° Northwest 173 199 1,300  Level FlightAware
12:24AM 2.7456 101.7099 334° Northwest  Level Estimated
12:25AM 2.7456 101.7099 236° Southwest  Level Estimated
12:26AM 2.7456 101.7099 236° Southwest  Level Estimated
12:27AM 2.7456 101.7099 236° Southwest  Level Estimated
12:28AM 2.7456 101.7099 236° Southwest  Level Estimated
12:29AM 2.7456 101.7099 236° Southwest  Level Estimated
12:30AM 2.7456 101.7099 236° Southwest  Level Estimated
12:31AM 2.7456 101.7099 236° Southwest  Level Estimated
12:32AM 2.7456 101.7099 236° Southwest  Level Estimated
12:33AM 2.7456 101.7099 236° Southwest  Level Estimated
12:34AM 2.7456 101.7099 236° Southwest  Level Estimated
12:35AM 2.7456 101.7099 236° Southwest  Level Estimated
12:36AM 2.7456 101.7099 236° Southwest  Level Estimated